createdAt,value
2019-01-30T00:01:17.290Z,98.00
2019-01-30T00:03:46.767Z,97.80
2019-01-30T00:06:16.307Z,97.50
2019-01-30T00:08:45.923Z,97.30
2019-01-30T00:11:15.613Z,97.60
2019-01-30T00:13:45.421Z,97.70
2019-01-30T00:16:15.140Z,97.80
2019-01-30T00:18:44.835Z,97.90
2019-01-30T00:21:14.463Z,97.90
2019-01-30T00:23:47.428Z,97.80
2019-01-30T00:26:17.053Z,97.80
2019-01-30T00:28:46.693Z,97.80
2019-01-30T00:31:17.898Z,97.70
2019-01-30T00:33:48.437Z,97.80
2019-01-30T00:36:18.055Z,97.60
2019-01-30T00:38:47.680Z,98.20
2019-01-30T00:41:18.806Z,97.90
2019-01-30T00:43:48.365Z,97.90
2019-01-30T00:46:17.955Z,98.00
2019-01-30T00:48:47.523Z,98.00
2019-01-30T00:51:17.366Z,98.00
2019-01-30T00:53:46.840Z,98.00
2019-01-30T00:56:16.395Z,98.00
2019-01-30T00:58:46.108Z,97.70
2019-01-30T01:01:16.196Z,97.60
2019-01-30T01:03:45.950Z,97.60
2019-01-30T01:06:15.870Z,97.70
2019-01-30T01:08:45.870Z,97.70
2019-01-30T01:11:15.547Z,97.70
2019-01-30T01:13:45.560Z,97.50
2019-01-30T01:16:15.154Z,97.70
2019-01-30T01:18:44.991Z,97.60
2019-01-30T01:21:14.641Z,97.70
2019-01-30T01:23:45.801Z,97.80
2019-01-30T01:26:15.381Z,97.70
2019-01-30T01:28:44.952Z,97.80
2019-01-30T01:31:14.405Z,97.40
2019-01-30T01:33:45.559Z,97.50
2019-01-30T01:36:15.044Z,97.50
2019-01-30T01:38:44.829Z,97.30
2019-01-30T01:41:14.615Z,97.20
2019-01-30T01:43:44.179Z,97.00
2019-01-30T01:46:13.888Z,97.10
2019-01-30T01:48:43.466Z,96.90
2019-01-30T01:51:13.032Z,97.10
2019-01-30T01:53:44.188Z,96.90
2019-01-30T01:56:15.459Z,96.80
2019-01-30T01:58:45.411Z,96.80
2019-01-30T02:01:15.207Z,97.00
2019-01-30T02:03:44.817Z,96.60
2019-01-30T02:06:15.236Z,97.10
2019-01-30T02:08:46.485Z,97.20
2019-01-30T02:11:16.299Z,97.40
2019-01-30T02:13:47.451Z,97.10
2019-01-30T02:16:17.128Z,97.10
2019-01-30T02:18:46.799Z,97.20
2019-01-30T02:21:16.642Z,97.00
2019-01-30T02:23:46.270Z,97.20
2019-01-30T02:26:15.791Z,96.90
2019-01-30T02:28:45.652Z,96.80
2019-01-30T02:31:15.647Z,97.10
2019-01-30T02:33:47.189Z,97.10
2019-01-30T02:36:16.722Z,97.20
2019-01-30T02:38:46.387Z,97.30
2019-01-30T02:41:16.205Z,97.50
2019-01-30T02:43:45.703Z,97.40
2019-01-30T02:46:15.329Z,97.50
2019-01-30T02:48:44.987Z,97.50
2019-01-30T02:51:14.845Z,97.60
2019-01-30T02:53:44.553Z,97.60
2019-01-30T02:56:14.200Z,97.50
2019-01-30T02:58:43.742Z,97.60
2019-01-30T03:01:13.344Z,97.60
2019-01-30T03:03:42.911Z,97.50
2019-01-30T03:06:12.697Z,97.60
2019-01-30T03:08:42.233Z,97.70
2019-01-30T03:11:11.908Z,97.50
2019-01-30T03:13:41.588Z,97.40
2019-01-30T03:16:11.149Z,97.60
2019-01-30T03:18:40.793Z,97.60
2019-01-30T03:21:10.217Z,97.40
2019-01-30T03:23:39.874Z,97.40
2019-01-30T03:26:09.650Z,97.60
2019-01-30T03:28:39.181Z,97.60
2019-01-30T03:31:17.960Z,97.60
2019-01-30T03:33:40.427Z,97.60
2019-01-30T03:36:10.060Z,97.40
2019-01-30T03:38:41.365Z,97.20
2019-01-30T03:41:10.913Z,97.50
2019-01-30T03:43:40.451Z,97.60
2019-01-30T03:46:10.311Z,97.50
2019-01-30T03:48:39.862Z,97.60
2019-01-30T03:51:09.411Z,97.50
2019-01-30T03:53:39.137Z,97.70
2019-01-30T03:56:08.895Z,97.50
2019-01-30T03:58:38.454Z,97.50
2019-01-30T04:04:01.649Z,97.70
2019-01-30T04:06:31.253Z,97.60
2019-01-30T04:09:00.761Z,97.70
2019-01-30T04:11:30.331Z,97.70
2019-01-30T04:14:00.755Z,97.80
2019-01-30T04:16:30.483Z,97.80
2019-01-30T04:18:59.974Z,97.80
2019-01-30T04:21:29.441Z,97.70
2019-01-30T04:23:58.927Z,97.80
2019-01-30T04:26:28.539Z,97.80
2019-01-30T04:29:16.751Z,97.80
2019-01-30T04:31:46.596Z,98.10
2019-01-30T04:34:19.053Z,97.60
2019-01-30T04:36:48.701Z,97.80
2019-01-30T04:39:18.413Z,97.70
2019-01-30T04:41:48.023Z,97.80
2019-01-30T04:44:17.632Z,97.80
2019-01-30T04:46:47.219Z,97.80
2019-01-30T04:49:16.845Z,97.80
2019-01-30T04:51:46.425Z,97.80
2019-01-30T04:54:15.988Z,97.70
2019-01-30T04:56:45.557Z,97.80
2019-01-30T04:59:15.157Z,97.50
2019-01-30T05:01:49.731Z,97.50
2019-01-30T05:06:50.662Z,97.60
2019-01-30T05:09:20.135Z,97.50
2019-01-30T05:11:49.652Z,97.50
2019-01-30T05:14:19.193Z,97.70
2019-01-30T05:16:48.597Z,97.70
2019-01-30T05:19:18.455Z,97.70
2019-01-30T05:21:48.351Z,97.80
2019-01-30T05:24:18.828Z,97.80
2019-01-30T05:26:48.288Z,97.90
2019-01-30T05:29:17.909Z,97.80
2019-01-30T05:31:47.432Z,97.90
2019-01-30T05:34:17.057Z,97.80
2019-01-30T05:36:46.740Z,97.80
2019-01-30T05:39:16.344Z,97.80
2019-01-30T05:41:45.930Z,97.70
2019-01-30T05:44:21.259Z,97.60
2019-01-30T05:46:50.820Z,97.70
2019-01-30T05:49:38.634Z,97.70
2019-01-30T05:52:08.236Z,97.50
2019-01-30T05:54:37.975Z,97.60
2019-01-30T05:57:07.486Z,97.60
2019-01-30T05:59:37.156Z,97.70
2019-01-30T06:02:12.105Z,97.70
2019-01-30T06:04:38.410Z,97.60
2019-01-30T06:07:08.018Z,97.60
2019-01-30T06:09:37.588Z,97.60
2019-01-30T06:12:07.143Z,97.60
2019-01-30T06:14:54.606Z,97.60
2019-01-30T06:17:24.351Z,97.60
2019-01-30T06:19:53.898Z,97.50
2019-01-30T06:22:23.820Z,97.50
2019-01-30T06:24:53.353Z,97.50
2019-01-30T06:27:22.999Z,97.50
2019-01-30T06:29:52.824Z,97.60
2019-01-30T06:32:22.397Z,97.50
2019-01-30T06:34:51.864Z,97.50
2019-01-30T06:37:22.481Z,97.40
2019-01-30T06:39:52.216Z,97.50
2019-01-30T06:42:21.882Z,97.50
2019-01-30T06:44:51.636Z,97.50
2019-01-30T06:47:21.322Z,97.50
2019-01-30T06:49:50.884Z,97.50
2019-01-30T06:52:22.221Z,97.50
2019-01-30T06:54:51.868Z,97.50
2019-01-30T06:57:21.699Z,97.60
2019-01-30T06:59:51.291Z,97.60
2019-01-30T07:02:21.017Z,97.60
2019-01-30T07:04:51.022Z,97.60
2019-01-30T07:07:20.604Z,97.60
2019-01-30T07:09:50.194Z,97.60
2019-01-30T07:12:27.333Z,97.60
2019-01-30T07:14:56.827Z,97.50
2019-01-30T07:17:26.590Z,97.50
2019-01-30T07:19:56.132Z,97.50
2019-01-30T07:22:25.856Z,97.40
2019-01-30T07:24:56.910Z,97.50
2019-01-30T07:27:26.648Z,97.40
2019-01-30T07:29:56.392Z,97.40
2019-01-30T07:32:26.212Z,97.40
2019-01-30T07:34:55.914Z,97.50
2019-01-30T07:37:25.620Z,97.50
2019-01-30T07:39:56.500Z,97.50
2019-01-30T07:42:26.198Z,97.40
2019-01-30T07:44:55.912Z,97.40
2019-01-30T07:47:25.507Z,97.50
2019-01-30T07:49:55.468Z,97.50
2019-01-30T07:52:25.409Z,97.50
2019-01-30T07:54:55.238Z,97.60
2019-01-30T07:57:43.651Z,97.50
2019-01-30T08:00:19.142Z,97.50
2019-01-30T08:02:53.293Z,97.60
2019-01-30T08:05:22.466Z,97.60
2019-01-30T08:07:51.292Z,97.60
2019-01-30T08:10:21.796Z,97.60
2019-01-30T08:12:51.399Z,97.60
2019-01-30T08:15:23.637Z,97.70
2019-01-30T08:17:53.280Z,97.70
2019-01-30T08:20:23.419Z,97.70
2019-01-30T08:22:53.414Z,97.70
2019-01-30T08:25:23.803Z,97.60
2019-01-30T08:27:54.455Z,97.60
2019-01-30T08:30:28.824Z,97.60
2019-01-30T08:33:04.733Z,97.70
2019-01-30T08:35:31.436Z,97.60
2019-01-30T08:38:01.010Z,97.70
2019-01-30T08:40:31.008Z,97.80
2019-01-30T08:43:00.830Z,97.80
2019-01-30T08:45:31.236Z,97.90
2019-01-30T08:48:00.861Z,97.90
2019-01-30T08:50:30.648Z,97.80
2019-01-30T08:53:00.528Z,97.90
2019-01-30T08:55:30.408Z,97.90
2019-01-30T08:58:06.468Z,97.90
2019-01-30T09:00:41.868Z,98.00
2019-01-30T09:03:14.766Z,98.00
2019-01-30T09:05:43.186Z,97.90
2019-01-30T09:08:12.958Z,98.00
2019-01-30T09:10:42.812Z,98.00
2019-01-30T09:13:12.706Z,98.00
2019-01-30T09:15:42.274Z,98.00
2019-01-30T09:18:11.960Z,98.00
2019-01-30T09:20:41.772Z,98.00
2019-01-30T09:23:11.330Z,98.00
2019-01-30T09:25:41.080Z,97.90
2019-01-30T09:28:10.812Z,97.90
2019-01-30T09:30:40.674Z,97.90
2019-01-30T09:33:10.545Z,98.00
2019-01-30T09:35:40.149Z,98.00
2019-01-30T09:38:09.888Z,98.00
2019-01-30T09:40:39.500Z,98.00
2019-01-30T09:43:09.072Z,98.00
2019-01-30T09:45:38.684Z,98.10
2019-01-30T09:48:08.367Z,98.10
2019-01-30T09:50:38.662Z,98.10
2019-01-30T09:53:08.586Z,98.10
2019-01-30T09:55:38.247Z,98.10
2019-01-30T09:58:08.163Z,98.20
2019-01-30T10:00:39.266Z,98.10
2019-01-30T10:03:08.928Z,98.20
2019-01-30T10:05:38.521Z,98.20
2019-01-30T10:08:08.291Z,98.20
2019-01-30T10:10:41.707Z,98.30
2019-01-30T10:13:11.835Z,98.20
2019-01-30T10:15:43.726Z,98.20
2019-01-30T10:18:14.262Z,98.20
2019-01-30T10:20:46.110Z,98.20
2019-01-30T10:23:15.912Z,98.20
2019-01-30T10:25:45.633Z,98.20
2019-01-30T10:28:16.970Z,98.30
2019-01-30T10:30:47.723Z,98.20
2019-01-30T10:33:17.401Z,98.30
2019-01-30T10:35:47.374Z,98.30
2019-01-30T10:38:17.085Z,98.30
2019-01-30T10:40:46.611Z,98.40
2019-01-30T10:43:16.371Z,98.40
2019-01-30T10:45:46.379Z,98.40
2019-01-30T10:48:15.939Z,98.30
2019-01-30T10:50:45.749Z,98.40
2019-01-30T10:53:15.785Z,98.40
2019-01-30T10:55:45.548Z,98.50
2019-01-30T10:58:16.232Z,98.50
2019-01-30T11:00:48.109Z,98.40
2019-01-30T11:03:18.047Z,98.50
2019-01-30T11:08:35.131Z,98.70
2019-01-30T11:11:07.902Z,98.40
2019-01-30T11:13:36.025Z,98.40
2019-01-30T11:16:05.909Z,98.50
2019-01-30T11:18:35.543Z,98.50
2019-01-30T11:21:06.092Z,98.40
2019-01-30T11:23:35.803Z,98.50
2019-01-30T11:26:05.507Z,98.60
2019-01-30T11:28:35.165Z,98.60
2019-01-30T11:31:04.887Z,98.60
2019-01-30T11:33:36.101Z,98.60
2019-01-30T11:36:05.695Z,98.50
2019-01-30T11:38:35.485Z,98.40
2019-01-30T11:41:05.265Z,98.60
2019-01-30T11:43:35.607Z,98.50
2019-01-30T11:46:05.345Z,98.60
2019-01-30T11:48:35.159Z,98.60
2019-01-30T11:51:04.983Z,98.60
2019-01-30T11:53:34.731Z,98.60
2019-01-30T11:56:05.133Z,98.60
2019-01-30T11:58:35.045Z,98.60
2019-01-30T12:01:04.741Z,98.70
2019-01-30T12:03:34.465Z,98.60
2019-01-30T12:06:04.233Z,98.60
2019-01-30T12:08:35.425Z,98.60
2019-01-30T12:11:05.313Z,98.40
2019-01-30T12:13:35.597Z,98.50
2019-01-30T12:16:05.463Z,98.60
2019-01-30T12:18:35.059Z,98.70
2019-01-30T12:21:04.735Z,98.70
2019-01-30T12:23:34.176Z,98.70
2019-01-30T12:26:03.813Z,98.60
2019-01-30T12:28:34.185Z,98.80
2019-01-30T12:31:03.897Z,98.70
2019-01-30T12:33:33.761Z,98.70
2019-01-30T12:36:03.341Z,98.80
2019-01-30T12:38:32.991Z,98.70
2019-01-30T12:41:02.647Z,98.80
2019-01-30T12:43:32.177Z,98.90
2019-01-30T12:46:02.738Z,98.90
2019-01-30T12:48:32.467Z,98.90
2019-01-30T12:51:02.100Z,99.00
2019-01-30T12:53:31.706Z,98.90
2019-01-30T12:56:02.387Z,99.00
2019-01-30T12:58:31.995Z,99.00
2019-01-30T13:01:01.566Z,99.10
2019-01-30T13:03:31.135Z,99.20
2019-01-30T13:06:01.365Z,99.10
2019-01-30T13:08:30.935Z,99.20
2019-01-30T13:11:00.805Z,99.00
2019-01-30T13:13:31.989Z,99.10
2019-01-30T13:16:01.663Z,99.20
2019-01-30T13:18:31.257Z,99.00
2019-01-30T13:21:00.865Z,99.10
2019-01-30T13:23:30.505Z,99.20
2019-01-30T13:26:00.065Z,99.10
2019-01-30T13:28:30.641Z,99.50
2019-01-30T13:31:00.271Z,99.20
2019-01-30T13:33:29.844Z,99.50
2019-01-30T13:35:59.498Z,99.30
2019-01-30T13:38:29.150Z,99.20
2019-01-30T13:40:58.696Z,99.20
2019-01-30T13:43:28.402Z,99.30
2019-01-30T13:46:05.266Z,99.30
2019-01-30T13:48:31.549Z,99.30
2019-01-30T13:51:01.262Z,99.20
2019-01-30T13:53:30.726Z,99.10
2019-01-30T13:56:00.395Z,99.10
2019-01-30T13:58:30.045Z,99.00
2019-01-30T14:00:59.655Z,99.20
2019-01-30T14:03:29.301Z,99.20
2019-01-30T14:05:58.934Z,99.50
2019-01-30T14:08:28.633Z,99.30
2019-01-30T14:10:58.298Z,99.10
2019-01-30T14:13:28.046Z,99.30
2019-01-30T14:15:57.839Z,99.50
2019-01-30T14:18:27.500Z,99.40
2019-01-30T14:20:57.050Z,99.30
2019-01-30T14:23:26.591Z,99.20
2019-01-30T14:25:56.148Z,99.30
2019-01-30T14:28:25.735Z,99.30
2019-01-30T14:30:55.216Z,99.60
2019-01-30T14:33:24.838Z,99.60
2019-01-30T14:35:54.475Z,99.40
2019-01-30T14:38:24.126Z,99.80
2019-01-30T14:40:53.836Z,99.40
2019-01-30T14:43:23.460Z,99.30
2019-01-30T14:45:53.235Z,99.40
2019-01-30T14:48:22.857Z,99.20
2019-01-30T14:50:52.422Z,99.10
2019-01-30T14:53:22.048Z,99.30
2019-01-30T14:55:51.509Z,99.20
2019-01-30T14:58:21.409Z,99.20
2019-01-30T15:00:50.952Z,99.20
2019-01-30T15:03:20.846Z,99.40
2019-01-30T15:05:50.561Z,99.30
2019-01-30T15:08:20.178Z,99.30
2019-01-30T15:10:49.788Z,99.40
2019-01-30T15:13:19.254Z,99.20
2019-01-30T15:15:48.911Z,99.20
2019-01-30T15:18:18.514Z,99.20
2019-01-30T15:20:48.333Z,99.20
2019-01-30T15:23:17.923Z,99.20
2019-01-30T15:25:47.559Z,99.20
2019-01-30T15:28:17.134Z,99.10
2019-01-30T15:30:47.156Z,99.30
2019-01-30T15:33:17.611Z,99.40
2019-01-30T15:35:47.417Z,99.30
2019-01-30T15:38:17.168Z,99.40
2019-01-30T15:40:46.962Z,99.40
2019-01-30T15:43:16.600Z,99.40
2019-01-30T15:45:46.530Z,99.20
2019-01-30T15:48:16.248Z,99.40
2019-01-30T15:50:46.012Z,99.40
2019-01-30T15:53:15.995Z,99.50
2019-01-30T15:55:45.718Z,99.70
2019-01-30T15:58:16.204Z,99.40
2019-01-30T16:00:57.250Z,99.50
2019-01-30T16:03:27.098Z,99.50
2019-01-30T16:05:56.662Z,99.50
2019-01-30T16:08:26.481Z,99.60
2019-01-30T16:10:56.210Z,99.60
2019-01-30T16:13:25.852Z,99.70
2019-01-30T16:15:58.148Z,99.50
2019-01-30T16:18:27.884Z,99.60
2019-01-30T16:20:57.696Z,99.60
2019-01-30T16:23:27.294Z,99.50
2019-01-30T16:25:56.916Z,99.60
2019-01-30T16:28:26.528Z,99.90
2019-01-30T16:30:56.251Z,99.60
2019-01-30T16:33:25.930Z,99.40
2019-01-30T16:35:56.563Z,99.50
2019-01-30T16:38:26.298Z,99.40
2019-01-30T16:40:55.899Z,99.30
2019-01-30T16:43:25.474Z,99.30
2019-01-30T16:45:55.091Z,99.20
2019-01-30T16:48:24.616Z,99.30
2019-01-30T16:50:54.429Z,99.20
2019-01-30T16:53:24.087Z,99.30
2019-01-30T16:55:53.773Z,99.20
2019-01-30T16:58:23.745Z,99.20
2019-01-30T17:00:53.370Z,99.30
2019-01-30T17:03:23.168Z,99.30
2019-01-30T17:05:52.830Z,99.30
2019-01-30T17:08:22.378Z,99.40
2019-01-30T17:10:52.037Z,99.50
2019-01-30T17:13:21.595Z,99.60
2019-01-30T17:15:51.912Z,99.60
2019-01-30T17:18:24.188Z,99.50
2019-01-30T17:20:52.730Z,99.50
2019-01-30T17:23:22.410Z,99.60
2019-01-30T17:25:51.908Z,99.60
2019-01-30T17:28:21.412Z,99.50
2019-01-30T17:30:54.500Z,99.50
2019-01-30T17:33:24.188Z,99.50
2019-01-30T17:35:53.947Z,99.60
2019-01-30T17:38:25.236Z,99.40
2019-01-30T17:40:55.046Z,99.50
2019-01-30T17:43:24.700Z,99.50
2019-01-30T17:45:54.256Z,99.20
2019-01-30T17:48:23.958Z,99.30
2019-01-30T17:50:54.473Z,99.20
2019-01-30T17:53:24.130Z,99.20
2019-01-30T17:55:53.811Z,99.20
2019-01-30T17:58:23.422Z,99.30
2019-01-30T18:00:55.168Z,99.20
2019-01-30T18:03:24.716Z,99.20
2019-01-30T18:05:54.471Z,99.20
2019-01-30T18:08:23.984Z,99.20
2019-01-30T18:10:53.519Z,99.10
2019-01-30T18:13:23.166Z,99.10
2019-01-30T18:15:53.728Z,99.10
2019-01-30T18:18:23.448Z,99.10
2019-01-30T18:20:53.028Z,99.00
2019-01-30T18:23:22.574Z,99.10
2019-01-30T18:25:52.192Z,99.00
2019-01-30T18:28:21.757Z,99.10
2019-01-30T18:30:51.836Z,99.10
2019-01-30T18:33:21.402Z,99.10
2019-01-30T18:35:50.942Z,99.00
2019-01-30T18:38:20.718Z,99.10
2019-01-30T18:40:50.338Z,99.10
2019-01-30T18:43:20.048Z,99.00
2019-01-30T18:45:49.628Z,99.00
2019-01-30T18:48:19.202Z,99.00
2019-01-30T18:50:48.814Z,99.00
2019-01-30T18:53:18.340Z,99.10
2019-01-30T18:55:47.960Z,99.00
2019-01-30T18:58:17.596Z,99.00
2019-01-30T19:00:47.195Z,99.00
2019-01-30T19:03:16.793Z,98.90
2019-01-30T19:05:46.527Z,98.90
2019-01-30T19:08:16.108Z,98.90
2019-01-30T19:10:45.812Z,98.90
2019-01-30T19:13:15.422Z,98.90
2019-01-30T19:15:45.103Z,98.80
2019-01-30T19:18:14.717Z,98.90
2019-01-30T19:20:46.196Z,98.90
2019-01-30T19:23:15.742Z,98.80
2019-01-30T19:25:45.344Z,98.80
2019-01-30T19:28:16.304Z,98.80
2019-01-30T19:30:46.088Z,98.80
2019-01-30T19:33:15.975Z,98.80
2019-01-30T19:35:45.475Z,98.80
2019-01-30T19:38:15.024Z,98.80
2019-01-30T19:40:44.580Z,98.90
2019-01-30T19:43:14.128Z,98.80
2019-01-30T19:45:43.830Z,98.80
2019-01-30T19:48:13.442Z,98.80
2019-01-30T19:50:43.063Z,98.80
2019-01-30T19:53:12.771Z,98.80
2019-01-30T19:55:42.382Z,98.80
2019-01-30T19:58:12.417Z,98.80
2019-01-30T20:00:45.190Z,98.80
2019-01-30T20:03:17.960Z,98.80
2019-01-30T20:05:47.506Z,98.80
2019-01-30T20:08:17.294Z,98.80
2019-01-30T20:10:47.092Z,98.70
2019-01-30T20:13:16.645Z,98.80
2019-01-30T20:15:46.329Z,98.70
2019-01-30T20:18:15.965Z,98.80
2019-01-30T20:20:45.510Z,98.80
2019-01-30T20:23:15.151Z,98.80
2019-01-30T20:25:44.908Z,98.70
2019-01-30T20:28:15.398Z,98.80
2019-01-30T20:30:45.019Z,98.80
2019-01-30T20:33:14.615Z,98.80
2019-01-30T20:35:44.155Z,98.80
2019-01-30T20:38:14.014Z,98.80
2019-01-30T20:40:43.489Z,99.00
2019-01-30T20:43:13.183Z,98.80
2019-01-30T20:45:42.843Z,98.70
2019-01-30T20:48:12.630Z,98.80
2019-01-30T20:50:42.202Z,98.80
2019-01-30T20:53:11.840Z,98.90
2019-01-30T20:55:41.394Z,98.90
2019-01-30T20:58:10.974Z,98.90
2019-01-30T21:00:40.493Z,98.80
2019-01-30T21:03:09.936Z,98.90
2019-01-30T21:05:39.527Z,98.90
2019-01-30T21:08:09.140Z,98.90
2019-01-30T21:10:39.954Z,98.90
2019-01-30T21:13:09.606Z,99.00
2019-01-30T21:15:39.251Z,98.80
2019-01-30T21:18:09.091Z,98.80
2019-01-30T21:20:38.851Z,98.90
2019-01-30T21:23:08.483Z,98.80
2019-01-30T21:25:37.991Z,98.90
2019-01-30T21:28:07.703Z,98.90
2019-01-30T21:30:38.475Z,98.90
2019-01-30T21:33:08.176Z,98.90
2019-01-30T21:35:37.901Z,98.90
2019-01-30T21:38:07.699Z,98.80
2019-01-30T21:40:37.303Z,98.90
2019-01-30T21:43:07.089Z,98.90
2019-01-30T21:45:36.705Z,98.90
2019-01-30T21:48:06.287Z,98.80
2019-01-30T21:50:35.781Z,98.80
2019-01-30T21:53:05.557Z,98.80
2019-01-30T21:55:34.948Z,98.70
2019-01-30T21:58:05.170Z,98.70
2019-01-30T22:00:34.840Z,98.80
2019-01-30T22:03:05.227Z,98.70
2019-01-30T22:05:34.918Z,98.80
2019-01-30T22:08:04.657Z,98.80
2019-01-30T22:10:34.177Z,98.70
2019-01-30T22:13:03.776Z,98.80
2019-01-30T22:15:33.253Z,98.80
2019-01-30T22:18:02.911Z,98.70
2019-01-30T22:20:32.661Z,98.60
2019-01-30T22:23:02.172Z,98.70
2019-01-30T22:25:31.771Z,98.70
2019-01-30T22:28:01.353Z,98.70
2019-01-30T22:30:32.882Z,98.70
2019-01-30T22:33:02.592Z,98.70
2019-01-30T22:35:32.514Z,98.70
2019-01-30T22:38:12.101Z,98.80
2019-01-30T22:40:33.266Z,98.70
2019-01-30T22:43:02.783Z,98.60
2019-01-30T22:45:32.385Z,98.70
2019-01-30T22:48:01.922Z,98.80
2019-01-30T22:50:31.597Z,98.70
2019-01-30T22:53:01.250Z,99.20
2019-01-30T22:55:30.861Z,98.90
2019-01-30T22:58:00.553Z,98.90
2019-01-30T23:00:59.680Z,99.00
2019-01-30T23:03:44.123Z,98.90
2019-01-30T23:06:16.836Z,98.90
2019-01-30T23:08:52.401Z,98.80
2019-01-30T23:11:42.761Z,98.80
2019-01-30T23:14:12.275Z,98.80
2019-01-30T23:16:57.163Z,98.80
2019-01-30T23:19:44.549Z,98.70
2019-01-30T23:22:28.885Z,99.00
2019-01-30T23:25:10.313Z,98.60
2019-01-30T23:27:42.947Z,98.70
2019-01-30T23:30:33.371Z,98.70
2019-01-30T23:33:14.644Z,98.50
2019-01-30T23:36:01.830Z,98.70
2019-01-30T23:38:40.035Z,98.60
2019-01-30T23:41:30.651Z,98.80
2019-01-30T23:44:04.159Z,98.90
2019-01-30T23:46:55.837Z,98.80
2019-01-30T23:49:57.082Z,98.80
2019-01-30T23:52:29.763Z,98.90
2019-01-30T23:55:05.065Z,98.90
2019-01-30T23:57:58.399Z,98.90
